sensor_id;sensor_type;location;lat;lon;timestamp;pressure;altitude;pressure_sealevel;temperature;humidity
45541;BME280;31265;49.680;8.608;2024-01-07T00:01:50;100167.25;;;4.16;100.00
45541;BME280;31265;49.680;8.608;2024-01-07T00:04:19;100170.13;;;4.24;100.00
45541;BME280;31265;49.680;8.608;2024-01-07T00:06:48;100168.19;;;4.19;100.00
45541;BME280;31265;49.680;8.608;2024-01-07T00:09:18;100171.69;;;4.19;100.00
45541;BME280;31265;49.680;8.608;2024-01-07T00:11:48;100172.19;;;4.18;100.00
45541;BME280;31265;49.680;8.608;2024-01-07T00:14:21;100175.47;;;4.16;100.00
45541;BME280;31265;49.680;8.608;2024-01-07T00:16:49;100164.34;;;4.08;100.00
45541;BME280;31265;49.680;8.608;2024-01-07T00:19:21;100175.47;;;4.16;100.00
45541;BME280;31265;49.680;8.608;2024-01-07T00:21:52;100175.84;;;4.26;100.00
45541;BME280;31265;49.680;8.608;2024-01-07T00:24:22;100181.78;;;4.11;100.00
45541;BME280;31265;49.680;8.608;2024-01-07T00:26:55;100177.34;;;4.08;100.00
45541;BME280;31265;49.680;8.608;2024-01-07T00:29:26;100181.06;;;4.11;100.00
45541;BME280;31265;49.680;8.608;2024-01-07T00:31:56;100178.59;;;4.07;100.00
45541;BME280;31265;49.680;8.608;2024-01-07T00:34:26;100179.31;;;4.07;100.00
45541;BME280;31265;49.680;8.608;2024-01-07T00:36:56;100185.13;;;4.04;100.00
45541;BME280;31265;49.680;8.608;2024-01-07T00:39:27;100187.66;;;4.02;100.00
45541;BME280;31265;49.680;8.608;2024-01-07T00:41:58;100182.06;;;4.07;100.00
45541;BME280;31265;49.680;8.608;2024-01-07T00:44:29;100188.84;;;4.06;100.00
45541;BME280;31265;49.680;8.608;2024-01-07T00:46:59;100189.13;;;4.03;100.00
45541;BME280;31265;49.680;8.608;2024-01-07T00:49:33;100192.09;;;4.05;100.00
45541;BME280;31265;49.680;8.608;2024-01-07T00:52:04;100195.28;;;4.09;100.00
45541;BME280;31265;49.680;8.608;2024-01-07T00:54:35;100191.06;;;4.08;100.00
45541;BME280;31265;49.680;8.608;2024-01-07T00:57:06;100192.03;;;4.11;100.00
45541;BME280;31265;49.680;8.608;2024-01-07T00:59:38;100190.44;;;4.15;100.00
45541;BME280;31265;49.680;8.608;2024-01-07T01:02:10;100195.22;;;4.15;100.00
45541;BME280;31265;49.680;8.608;2024-01-07T01:04:42;100203.16;;;4.18;100.00
45541;BME280;31265;49.680;8.608;2024-01-07T01:07:14;100198.03;;;4.09;100.00
45541;BME280;31265;49.680;8.608;2024-01-07T01:09:42;100199.81;;;4.06;100.00
45541;BME280;31265;49.680;8.608;2024-01-07T01:12:15;100207.31;;;4.06;100.00
45541;BME280;31265;49.680;8.608;2024-01-07T01:14:47;100204.56;;;4.06;100.00
45541;BME280;31265;49.680;8.608;2024-01-07T01:17:18;100211.41;;;4.18;100.00
45541;BME280;31265;49.680;8.608;2024-01-07T01:19:49;100209.84;;;4.23;100.00
45541;BME280;31265;49.680;8.608;2024-01-07T01:22:25;100212.00;;;4.11;100.00
45541;BME280;31265;49.680;8.608;2024-01-07T01:24:59;100207.59;;;4.02;100.00
45541;BME280;31265;49.680;8.608;2024-01-07T01:27:31;100210.88;;;4.01;100.00
45541;BME280;31265;49.680;8.608;2024-01-07T01:30:05;100211.09;;;4.03;100.00
45541;BME280;31265;49.680;8.608;2024-01-07T01:32:36;100217.63;;;4.00;100.00
45541;BME280;31265;49.680;8.608;2024-01-07T01:35:06;100222.16;;;3.97;100.00
45541;BME280;31265;49.680;8.608;2024-01-07T01:37:40;100223.34;;;4.02;100.00
45541;BME280;31265;49.680;8.608;2024-01-07T01:40:13;100223.34;;;4.02;100.00
45541;BME280;31265;49.680;8.608;2024-01-07T01:42:47;100227.28;;;4.06;100.00
45541;BME280;31265;49.680;8.608;2024-01-07T01:45:21;100219.41;;;3.97;100.00
45541;BME280;31265;49.680;8.608;2024-01-07T01:47:51;100223.34;;;4.02;100.00
45541;BME280;31265;49.680;8.608;2024-01-07T01:50:25;100231.34;;;4.00;100.00
45541;BME280;31265;49.680;8.608;2024-01-07T01:53:00;100219.13;;;4.01;100.00
45541;BME280;31265;49.680;8.608;2024-01-07T01:55:31;100231.13;;;3.98;100.00
45541;BME280;31265;49.680;8.608;2024-01-07T01:58:01;100231.88;;;3.98;100.00
45541;BME280;31265;49.680;8.608;2024-01-07T02:00:33;100242.88;;;3.98;100.00
45541;BME280;31265;49.680;8.608;2024-01-07T02:03:03;100229.56;;;4.02;100.00
45541;BME280;31265;49.680;8.608;2024-01-07T02:05:35;100233.28;;;4.05;100.00
45541;BME280;31265;49.680;8.608;2024-01-07T02:08:07;100233.00;;;4.08;100.00
45541;BME280;31265;49.680;8.608;2024-01-07T02:10:41;100242.50;;;4.26;100.00
45541;BME280;31265;49.680;8.608;2024-01-07T02:13:12;100239.88;;;4.15;100.00
45541;BME280;31265;49.680;8.608;2024-01-07T02:15:44;100240.66;;;4.16;100.00
45541;BME280;31265;49.680;8.608;2024-01-07T02:18:13;100235.91;;;4.16;100.00
45541;BME280;31265;49.680;8.608;2024-01-07T02:20:41;100239.22;;;4.09;100.00
45541;BME280;31265;49.680;8.608;2024-01-07T02:23:10;100238.91;;;4.13;100.00
45541;BME280;31265;49.680;8.608;2024-01-07T02:25:40;100231.56;;;4.02;100.00
45541;BME280;31265;49.680;8.608;2024-01-07T02:28:09;100246.13;;;3.97;100.00
45541;BME280;31265;49.680;8.608;2024-01-07T02:30:38;100245.88;;;3.95;100.00
45541;BME280;31265;49.680;8.608;2024-01-07T02:33:07;100241.13;;;3.95;100.00
45541;BME280;31265;49.680;8.608;2024-01-07T02:35:37;100240.72;;;3.91;100.00
45541;BME280;31265;49.680;8.608;2024-01-07T02:38:05;100243.16;;;3.95;100.00
45541;BME280;31265;49.680;8.608;2024-01-07T02:40:34;100240.94;;;3.93;100.00
45541;BME280;31265;49.680;8.608;2024-01-07T02:43:04;100243.50;;;3.85;100.00
45541;BME280;31265;49.680;8.608;2024-01-07T02:45:32;100239.84;;;3.77;100.00
45541;BME280;31265;49.680;8.608;2024-01-07T02:48:01;100238.00;;;3.85;100.00
45541;BME280;31265;49.680;8.608;2024-01-07T02:50:29;100240.31;;;3.81;100.00
45541;BME280;31265;49.680;8.608;2024-01-07T02:52:58;100241.56;;;3.80;100.00
45541;BME280;31265;49.680;8.608;2024-01-07T02:55:26;100246.25;;;3.85;100.00
45541;BME280;31265;49.680;8.608;2024-01-07T02:57:55;100238.78;;;3.86;100.00
45541;BME280;31265;49.680;8.608;2024-01-07T03:00:27;100242.75;;;3.85;100.00
45541;BME280;31265;49.680;8.608;2024-01-07T03:02:55;100240.75;;;3.85;100.00
45541;BME280;31265;49.680;8.608;2024-01-07T03:05:24;100245.81;;;3.81;100.00
45541;BME280;31265;49.680;8.608;2024-01-07T03:07:54;100240.00;;;3.85;100.00
45541;BME280;31265;49.680;8.608;2024-01-07T03:10:23;100249.06;;;3.80;100.00
45541;BME280;31265;49.680;8.608;2024-01-07T03:12:52;100247.28;;;3.82;100.00
45541;BME280;31265;49.680;8.608;2024-01-07T03:15:20;100251.53;;;3.83;100.00
45541;BME280;31265;49.680;8.608;2024-01-07T03:17:51;100248.78;;;3.83;100.00
45541;BME280;31265;49.680;8.608;2024-01-07T03:20:20;100251.06;;;3.79;100.00
45541;BME280;31265;49.680;8.608;2024-01-07T03:22:50;100254.03;;;3.81;100.00
45541;BME280;31265;49.680;8.608;2024-01-07T03:25:18;100255.28;;;3.80;100.00
45541;BME280;31265;49.680;8.608;2024-01-07T03:27:47;100253.31;;;3.81;100.00
45541;BME280;31265;49.680;8.608;2024-01-07T03:30:16;100248.81;;;3.78;100.00
45541;BME280;31265;49.680;8.608;2024-01-07T03:32:44;100256.78;;;3.81;100.00
45541;BME280;31265;49.680;8.608;2024-01-07T03:35:14;100250.56;;;3.81;100.00
45541;BME280;31265;49.680;8.608;2024-01-07T03:37:44;100255.00;;;3.84;100.00
45541;BME280;31265;49.680;8.608;2024-01-07T03:40:12;100253.22;;;3.86;100.00
45541;BME280;31265;49.680;8.608;2024-01-07T03:42:42;100249.00;;;3.85;100.00
45541;BME280;31265;49.680;8.608;2024-01-07T03:45:10;100258.56;;;3.98;100.00
45541;BME280;31265;49.680;8.608;2024-01-07T03:47:39;100253.22;;;3.86;100.00
45541;BME280;31265;49.680;8.608;2024-01-07T03:50:08;100259.97;;;3.85;100.00
45541;BME280;31265;49.680;8.608;2024-01-07T03:52:38;100254.03;;;3.81;100.00
45541;BME280;31265;49.680;8.608;2024-01-07T03:55:07;100252.94;;;3.90;100.00
45541;BME280;31265;49.680;8.608;2024-01-07T03:57:35;100256.31;;;3.77;100.00
45541;BME280;31265;49.680;8.608;2024-01-07T04:00:05;100267.06;;;3.75;100.00
45541;BME280;31265;49.680;8.608;2024-01-07T04:02:34;100265.81;;;3.76;100.00
45541;BME280;31265;49.680;8.608;2024-01-07T04:05:02;100269.00;;;3.80;100.00
45541;BME280;31265;49.680;8.608;2024-01-07T04:07:31;100269.06;;;3.75;100.00
45541;BME280;31265;49.680;8.608;2024-01-07T04:10:00;100271.75;;;3.80;100.00
45541;BME280;31265;49.680;8.608;2024-01-07T04:12:29;100271.31;;;3.76;100.00
45541;BME280;31265;49.680;8.608;2024-01-07T04:14:58;100280.22;;;3.82;100.00
45541;BME280;31265;49.680;8.608;2024-01-07T04:17:26;100276.63;;;3.93;100.00
45541;BME280;31265;49.680;8.608;2024-01-07T04:19:55;100284.41;;;3.89;100.00
45541;BME280;31265;49.680;8.608;2024-01-07T04:22:23;100288.38;;;3.88;100.00
45541;BME280;31265;49.680;8.608;2024-01-07T04:24:52;100287.41;;;3.85;100.00
45541;BME280;31265;49.680;8.608;2024-01-07T04:27:22;100293.03;;;3.74;100.00
45541;BME280;31265;49.680;8.608;2024-01-07T04:29:52;100292.00;;;3.77;100.00
45541;BME280;31265;49.680;8.608;2024-01-07T04:32:20;100290.72;;;3.78;100.00
45541;BME280;31265;49.680;8.608;2024-01-07T04:34:49;100296.69;;;3.82;100.00
45541;BME280;31265;49.680;8.608;2024-01-07T04:37:18;100289.03;;;3.75;100.00
45541;BME280;31265;49.680;8.608;2024-01-07T04:39:46;100299.78;;;3.73;100.00
45541;BME280;31265;49.680;8.608;2024-01-07T04:42:15;100295.78;;;3.74;100.00
45541;BME280;31265;49.680;8.608;2024-01-07T04:44:45;100299.72;;;3.79;100.00
45541;BME280;31265;49.680;8.608;2024-01-07T04:47:25;100304.69;;;3.80;100.00
45541;BME280;31265;49.680;8.608;2024-01-07T04:49:56;100302.97;;;3.77;100.00
45541;BME280;31265;49.680;8.608;2024-01-07T04:52:26;100312.50;;;3.76;100.00
45541;BME280;31265;49.680;8.608;2024-01-07T04:54:55;100316.25;;;3.73;100.00
45541;BME280;31265;49.680;8.608;2024-01-07T04:57:23;100308.53;;;3.72;100.00
45541;BME280;31265;49.680;8.608;2024-01-07T04:59:53;100310.25;;;3.75;100.00
45541;BME280;31265;49.680;8.608;2024-01-07T05:02:22;100313.50;;;3.73;100.00
45541;BME280;31265;49.680;8.608;2024-01-07T05:04:53;100315.00;;;3.74;100.00
45541;BME280;31265;49.680;8.608;2024-01-07T05:07:21;100309.03;;;3.70;100.00
45541;BME280;31265;49.680;8.608;2024-01-07T05:09:50;100306.28;;;3.70;100.00
45541;BME280;31265;49.680;8.608;2024-01-07T05:12:18;100308.81;;;3.68;100.00
45541;BME280;31265;49.680;8.608;2024-01-07T05:14:47;100318.31;;;3.67;100.00
45541;BME280;31265;49.680;8.608;2024-01-07T05:17:17;100322.75;;;3.70;100.00
45541;BME280;31265;49.680;8.608;2024-01-07T05:19:45;100327.22;;;3.73;100.00
45541;BME280;31265;49.680;8.608;2024-01-07T05:22:15;100329.16;;;3.78;100.00
45541;BME280;31265;49.680;8.608;2024-01-07T05:24:44;100338.00;;;3.71;100.00
45541;BME280;31265;49.680;8.608;2024-01-07T05:27:13;100333.97;;;3.72;100.00
45541;BME280;31265;49.680;8.608;2024-01-07T05:29:44;100331.00;;;3.70;100.00
45541;BME280;31265;49.680;8.608;2024-01-07T05:32:13;100334.47;;;3.71;100.00
45541;BME280;31265;49.680;8.608;2024-01-07T05:34:43;100331.00;;;3.70;100.00
45541;BME280;31265;49.680;8.608;2024-01-07T05:37:11;100338.50;;;3.70;100.00
45541;BME280;31265;49.680;8.608;2024-01-07T05:39:40;100333.19;;;3.77;100.00
45541;BME280;31265;49.680;8.608;2024-01-07T05:42:09;100336.97;;;3.74;100.00
45541;BME280;31265;49.680;8.608;2024-01-07T05:44:37;100345.19;;;3.74;100.00
45541;BME280;31265;49.680;8.608;2024-01-07T05:47:07;100344.44;;;3.74;100.00
45541;BME280;31265;49.680;8.608;2024-01-07T05:49:36;100346.09;;;3.82;100.00
45541;BME280;31265;49.680;8.608;2024-01-07T05:52:07;100354.41;;;3.77;100.00
45541;BME280;31265;49.680;8.608;2024-01-07T05:54:35;100354.09;;;3.80;100.00
45541;BME280;31265;49.680;8.608;2024-01-07T05:57:05;100356.59;;;3.78;100.00
45541;BME280;31265;49.680;8.608;2024-01-07T05:59:34;100359.34;;;3.78;100.00
45541;BME280;31265;49.680;8.608;2024-01-07T06:02:03;100362.81;;;3.84;100.00
45541;BME280;31265;49.680;8.608;2024-01-07T06:04:31;100367.03;;;3.85;100.00
45541;BME280;31265;49.680;8.608;2024-01-07T06:07:00;100367.38;;;3.76;100.00
45541;BME280;31265;49.680;8.608;2024-01-07T06:09:30;100370.81;;;3.82;100.00
45541;BME280;31265;49.680;8.608;2024-01-07T06:11:59;100371.59;;;3.77;100.00
45541;BME280;31265;49.680;8.608;2024-01-07T06:14:29;100373.06;;;3.78;100.00
45541;BME280;31265;49.680;8.608;2024-01-07T06:16:58;100375.38;;;3.74;100.00
45541;BME280;31265;49.680;8.608;2024-01-07T06:19:26;100372.41;;;3.72;100.00
45541;BME280;31265;49.680;8.608;2024-01-07T06:21:54;100378.84;;;3.75;100.00
45541;BME280;31265;49.680;8.608;2024-01-07T06:24:26;100374.56;;;3.79;100.00
45541;BME280;31265;49.680;8.608;2024-01-07T06:26:56;100381.78;;;3.82;100.00
45541;BME280;31265;49.680;8.608;2024-01-07T06:29:25;100374.53;;;3.85;100.00
45541;BME280;31265;49.680;8.608;2024-01-07T06:31:54;100384.75;;;3.84;100.00
45541;BME280;31265;49.680;8.608;2024-01-07T06:34:23;100391.00;;;3.85;100.00
45541;BME280;31265;49.680;8.608;2024-01-07T06:36:52;100389.50;;;3.84;100.00
45541;BME280;31265;49.680;8.608;2024-01-07T06:39:20;100393.47;;;3.88;100.00
45541;BME280;31265;49.680;8.608;2024-01-07T06:41:49;100397.97;;;3.86;100.00
45541;BME280;31265;49.680;8.608;2024-01-07T06:44:20;100401.22;;;3.84;100.00
45541;BME280;31265;49.680;8.608;2024-01-07T06:46:49;100407.88;;;3.95;100.00
45541;BME280;31265;49.680;8.608;2024-01-07T06:49:18;100411.88;;;3.94;100.00
45541;BME280;31265;49.680;8.608;2024-01-07T06:51:47;100413.09;;;3.98;100.00
45541;BME280;31265;49.680;8.608;2024-01-07T06:54:15;100418.13;;;3.94;100.00
45541;BME280;31265;49.680;8.608;2024-01-07T06:56:42;100418.34;;;3.96;100.00
45541;BME280;31265;49.680;8.608;2024-01-07T06:59:11;100418.47;;;4.09;100.00
45541;BME280;31265;49.680;8.608;2024-01-07T07:01:41;100425.06;;;4.01;100.00
45541;BME280;31265;49.680;8.608;2024-01-07T07:04:09;100424.09;;;3.93;100.00
45541;BME280;31265;49.680;8.608;2024-01-07T07:06:38;100431.28;;;4.01;100.00
45541;BME280;31265;49.680;8.608;2024-01-07T07:09:06;100429.03;;;4.00;100.00
45541;BME280;31265;49.680;8.608;2024-01-07T07:11:34;100433.56;;;3.97;100.00
45541;BME280;31265;49.680;8.608;2024-01-07T07:14:03;100446.59;;;3.91;100.00
45541;BME280;31265;49.680;8.608;2024-01-07T07:16:31;100439.22;;;4.05;100.00
45541;BME280;31265;49.680;8.608;2024-01-07T07:19:02;100443.97;;;4.04;100.00
45541;BME280;31265;49.680;8.608;2024-01-07T07:21:30;100445.41;;;4.11;100.00
45541;BME280;31265;49.680;8.608;2024-01-07T07:23:59;100446.47;;;4.02;100.00
45541;BME280;31265;49.680;8.608;2024-01-07T07:26:27;100457.03;;;3.98;100.00
45541;BME280;31265;49.680;8.608;2024-01-07T07:28:55;100467.25;;;3.98;100.00
45541;BME280;31265;49.680;8.608;2024-01-07T07:31:24;100461.75;;;3.98;100.00
45541;BME280;31265;49.680;8.608;2024-01-07T07:33:53;100465.09;;;4.15;100.00
45541;BME280;31265;49.680;8.608;2024-01-07T07:36:23;100476.25;;;3.98;100.00
45541;BME280;31265;49.680;8.608;2024-01-07T07:38:51;100473.75;;;3.95;100.00
45541;BME280;31265;49.680;8.608;2024-01-07T07:41:20;100480.34;;;3.86;100.00
45541;BME280;31265;49.680;8.608;2024-01-07T07:43:49;100483.03;;;3.92;100.00
45541;BME280;31265;49.680;8.608;2024-01-07T07:46:18;100488.84;;;3.82;100.00
45541;BME280;31265;49.680;8.608;2024-01-07T07:48:46;100488.34;;;3.78;100.00
45541;BME280;31265;49.680;8.608;2024-01-07T07:51:15;100473.72;;;3.70;100.00
45541;BME280;31265;49.680;8.608;2024-01-07T07:53:46;100486.94;;;3.72;100.00
45541;BME280;31265;49.680;8.608;2024-01-07T07:56:14;100493.91;;;3.73;100.00
45541;BME280;31265;49.680;8.608;2024-01-07T07:58:43;100500.66;;;3.72;100.00
45541;BME280;31265;49.680;8.608;2024-01-07T08:01:11;100501.16;;;3.70;100.00
45541;BME280;31265;49.680;8.608;2024-01-07T08:03:40;100503.16;;;3.70;100.00
45541;BME280;31265;49.680;8.608;2024-01-07T08:06:10;100515.34;;;3.74;100.00
45541;BME280;31265;49.680;8.608;2024-01-07T08:08:39;100515.94;;;3.61;100.00
45541;BME280;31265;49.680;8.608;2024-01-07T08:11:11;100514.72;;;3.57;100.00
45541;BME280;31265;49.680;8.608;2024-01-07T08:13:39;100518.69;;;3.56;100.00
45541;BME280;31265;49.680;8.608;2024-01-07T08:16:10;100521.44;;;3.61;100.00
45541;BME280;31265;49.680;8.608;2024-01-07T08:18:41;100527.94;;;3.53;100.00
45541;BME280;31265;49.680;8.608;2024-01-07T08:21:10;100520.22;;;3.57;100.00
45541;BME280;31265;49.680;8.608;2024-01-07T08:23:39;100529.19;;;3.57;100.00
45541;BME280;31265;49.680;8.608;2024-01-07T08:26:09;100540.66;;;3.56;100.00
45541;BME280;31265;49.680;8.608;2024-01-07T08:28:38;100530.00;;;3.47;100.00
45541;BME280;31265;49.680;8.608;2024-01-07T08:31:06;100536.97;;;3.48;100.00
45541;BME280;31265;49.680;8.608;2024-01-07T08:33:35;100538.19;;;3.52;100.00
45541;BME280;31265;49.680;8.608;2024-01-07T08:36:05;100551.16;;;3.52;100.00
45541;BME280;31265;49.680;8.608;2024-01-07T08:38:33;100551.47;;;3.42;100.00
45541;BME280;31265;49.680;8.608;2024-01-07T08:41:02;100560.94;;;3.41;100.00
45541;BME280;31265;49.680;8.608;2024-01-07T08:43:33;100553.22;;;3.40;100.00
45541;BME280;31265;49.680;8.608;2024-01-07T08:46:03;100553.50;;;3.36;100.00
45541;BME280;31265;49.680;8.608;2024-01-07T08:48:33;100559.22;;;3.33;100.00
45541;BME280;31265;49.680;8.608;2024-01-07T08:51:01;100564.44;;;3.42;100.00
45541;BME280;31265;49.680;8.608;2024-01-07T08:53:30;100559.94;;;3.44;100.00
45541;BME280;31265;49.680;8.608;2024-01-07T08:55:59;100564.66;;;3.50;100.00
45541;BME280;31265;49.680;8.608;2024-01-07T08:58:28;100568.13;;;3.50;100.00
45541;BME280;31265;49.680;8.608;2024-01-07T09:00:59;100576.31;;;3.56;100.00
45541;BME280;31265;49.680;8.608;2024-01-07T09:03:28;100572.13;;;3.49;100.00
45541;BME280;31265;49.680;8.608;2024-01-07T09:05:58;100563.13;;;3.49;100.00
45541;BME280;31265;49.680;8.608;2024-01-07T09:08:27;100571.34;;;3.54;100.00
45541;BME280;31265;49.680;8.608;2024-01-07T09:10:57;100577.34;;;3.53;100.00
45541;BME280;31265;49.680;8.608;2024-01-07T09:13:29;100578.09;;;3.53;100.00
45541;BME280;31265;49.680;8.608;2024-01-07T09:15:59;100585.81;;;3.55;100.00
45541;BME280;31265;49.680;8.608;2024-01-07T09:18:28;100594.56;;;3.48;100.00
45541;BME280;31265;49.680;8.608;2024-01-07T09:20:58;100599.81;;;3.45;100.00
45541;BME280;31265;49.680;8.608;2024-01-07T09:23:26;100611.31;;;3.44;100.00
45541;BME280;31265;49.680;8.608;2024-01-07T09:25:56;100611.84;;;3.37;100.00
45541;BME280;31265;49.680;8.608;2024-01-07T09:28:26;100625.03;;;3.38;100.00
45541;BME280;31265;49.680;8.608;2024-01-07T09:30:54;100605.59;;;3.42;100.00
45541;BME280;31265;49.680;8.608;2024-01-07T09:33:24;100621.31;;;3.36;100.00
45541;BME280;31265;49.680;8.608;2024-01-07T09:35:53;100633.00;;;3.48;100.00
45541;BME280;31265;49.680;8.608;2024-01-07T09:38:37;100630.53;;;3.44;100.00
45541;BME280;31265;49.680;8.608;2024-01-07T09:41:06;100619.59;;;3.27;100.00
45541;BME280;31265;49.680;8.608;2024-01-07T09:43:36;100629.56;;;3.30;100.00
45541;BME280;31265;49.680;8.608;2024-01-07T09:46:04;100637.53;;;3.28;100.00
45541;BME280;31265;49.680;8.608;2024-01-07T09:48:35;100635.03;;;3.36;100.00
45541;BME280;31265;49.680;8.608;2024-01-07T09:51:07;100627.56;;;3.31;100.00
45541;BME280;31265;49.680;8.608;2024-01-07T09:53:39;100644.75;;;3.31;100.00
45541;BME280;31265;49.680;8.608;2024-01-07T09:56:18;100648.03;;;3.24;100.00
45541;BME280;31265;49.680;8.608;2024-01-07T09:58:48;100650.00;;;3.23;100.00
45541;BME280;31265;49.680;8.608;2024-01-07T10:01:17;100642.31;;;3.16;100.00
45541;BME280;31265;49.680;8.608;2024-01-07T10:03:49;100652.78;;;3.18;100.00
45541;BME280;31265;49.680;8.608;2024-01-07T10:06:18;100654.81;;;3.12;100.00
45541;BME280;31265;49.680;8.608;2024-01-07T10:08:47;100654.81;;;3.12;100.00
45541;BME280;31265;49.680;8.608;2024-01-07T10:11:21;100659.50;;;3.22;100.00
45541;BME280;31265;49.680;8.608;2024-01-07T10:13:49;100655.72;;;3.31;100.00
45541;BME280;31265;49.680;8.608;2024-01-07T10:16:19;100647.78;;;3.22;100.00
45541;BME280;31265;49.680;8.608;2024-01-07T10:18:49;100661.72;;;3.30;100.00
45541;BME280;31265;49.680;8.608;2024-01-07T10:21:20;100656.75;;;3.28;100.00
45541;BME280;31265;49.680;8.608;2024-01-07T10:23:49;100652.50;;;3.27;100.00
45541;BME280;31265;49.680;8.608;2024-01-07T10:26:19;100659.72;;;3.41;100.00
45541;BME280;31265;49.680;8.608;2024-01-07T10:28:59;100655.69;;;3.48;100.00
45541;BME280;31265;49.680;8.608;2024-01-07T10:31:28;100661.38;;;3.56;100.00
45541;BME280;31265;49.680;8.608;2024-01-07T10:33:58;100651.63;;;3.66;100.00
45541;BME280;31265;49.680;8.608;2024-01-07T10:36:27;100649.16;;;3.57;100.00
45541;BME280;31265;49.680;8.608;2024-01-07T10:38:56;100658.94;;;3.47;100.00
45541;BME280;31265;49.680;8.608;2024-01-07T10:41:25;100642.44;;;3.52;100.00
45541;BME280;31265;49.680;8.608;2024-01-07T10:43:55;100659.41;;;3.56;100.00
45541;BME280;31265;49.680;8.608;2024-01-07T10:46:24;100656.34;;;3.65;100.00
45541;BME280;31265;49.680;8.608;2024-01-07T10:49:04;100674.13;;;3.59;100.00
45541;BME280;31265;49.680;8.608;2024-01-07T10:51:34;100664.50;;;3.24;100.00
45541;BME280;31265;49.680;8.608;2024-01-07T10:54:03;100670.97;;;3.27;100.00
45541;BME280;31265;49.680;8.608;2024-01-07T10:56:39;100668.50;;;3.12;100.00
45541;BME280;31265;49.680;8.608;2024-01-07T10:59:13;100683.69;;;3.24;100.00
45541;BME280;31265;49.680;8.608;2024-01-07T11:01:42;100679.19;;;3.21;100.00
45541;BME280;31265;49.680;8.608;2024-01-07T11:04:17;100674.72;;;3.18;100.00
45541;BME280;31265;49.680;8.608;2024-01-07T11:06:52;100680.94;;;3.30;100.00
45541;BME280;31265;49.680;8.608;2024-01-07T11:09:27;100675.91;;;3.34;100.00
45541;BME280;31265;49.680;8.608;2024-01-07T11:11:57;100678.50;;;2.98;100.00
45541;BME280;31265;49.680;8.608;2024-01-07T11:14:38;100686.69;;;3.04;100.00
45541;BME280;31265;49.680;8.608;2024-01-07T11:17:07;100681.69;;;3.19;100.00
45541;BME280;31265;49.680;8.608;2024-01-07T11:19:37;100682.94;;;3.23;100.00
45541;BME280;31265;49.680;8.608;2024-01-07T11:22:23;100687.91;;;3.25;100.00
45541;BME280;31265;49.680;8.608;2024-01-07T11:24:57;100691.69;;;3.22;100.00
45541;BME280;31265;49.680;8.608;2024-01-07T11:27:29;100687.72;;;3.12;100.00
45541;BME280;31265;49.680;8.608;2024-01-07T11:30:02;100683.25;;;2.86;100.00
45541;BME280;31265;49.680;8.608;2024-01-07T11:32:33;100682.47;;;2.91;100.00
45541;BME280;31265;49.680;8.608;2024-01-07T11:35:04;100682.22;;;3.00;100.00
45541;BME280;31265;49.680;8.608;2024-01-07T11:37:33;100670.50;;;3.11;100.00
45541;BME280;31265;49.680;8.608;2024-01-07T11:40:06;100671.72;;;3.16;100.00
45541;BME280;31265;49.680;8.608;2024-01-07T11:42:35;100676.94;;;3.31;100.00
45541;BME280;31265;49.680;8.608;2024-01-07T11:45:04;100676.41;;;3.38;100.00
45541;BME280;31265;49.680;8.608;2024-01-07T11:47:36;100677.91;;;3.39;100.00
45541;BME280;31265;49.680;8.608;2024-01-07T11:50:07;100679.91;;;3.44;100.00
45541;BME280;31265;49.680;8.608;2024-01-07T11:52:43;100686.09;;;3.50;100.00
45541;BME280;31265;49.680;8.608;2024-01-07T11:55:12;100685.81;;;3.65;100.00
45541;BME280;31265;49.680;8.608;2024-01-07T11:57:43;100684.31;;;3.64;100.00
45541;BME280;31265;49.680;8.608;2024-01-07T12:00:13;100686.06;;;3.56;100.00
45541;BME280;31265;49.680;8.608;2024-01-07T12:02:42;100690.09;;;3.49;100.00
45541;BME280;31265;49.680;8.608;2024-01-07T12:05:11;100683.13;;;3.42;100.00
45541;BME280;31265;49.680;8.608;2024-01-07T12:07:43;100684.91;;;3.29;100.00
45541;BME280;31265;49.680;8.608;2024-01-07T12:10:12;100694.16;;;3.20;100.00
45541;BME280;31265;49.680;8.608;2024-01-07T12:12:42;100699.91;;;3.05;100.00
45541;BME280;31265;49.680;8.608;2024-01-07T12:15:12;100707.16;;;3.03;100.00
45541;BME280;31265;49.680;8.608;2024-01-07T12:17:41;100705.66;;;2.90;100.00
45541;BME280;31265;49.680;8.608;2024-01-07T12:20:15;100703.44;;;2.94;100.00
45541;BME280;31265;49.680;8.608;2024-01-07T12:22:43;100701.44;;;2.95;100.00
45541;BME280;31265;49.680;8.608;2024-01-07T12:25:12;100715.88;;;2.90;100.00
45541;BME280;31265;49.680;8.608;2024-01-07T12:27:41;100708.16;;;2.88;100.00
45541;BME280;31265;49.680;8.608;2024-01-07T12:30:14;100706.41;;;2.74;100.00
45541;BME280;31265;49.680;8.608;2024-01-07T12:32:45;100721.09;;;2.99;100.00
45541;BME280;31265;49.680;8.608;2024-01-07T12:35:14;100719.88;;;2.89;100.00
45541;BME280;31265;49.680;8.608;2024-01-07T12:37:43;100720.59;;;2.89;100.00
45541;BME280;31265;49.680;8.608;2024-01-07T12:40:13;100711.91;;;2.91;100.00
45541;BME280;31265;49.680;8.608;2024-01-07T12:42:42;100715.38;;;2.80;100.00
45541;BME280;31265;49.680;8.608;2024-01-07T12:45:13;100717.38;;;2.68;100.00
45541;BME280;31265;49.680;8.608;2024-01-07T12:47:43;100720.63;;;2.78;100.00
45541;BME280;31265;49.680;8.608;2024-01-07T12:50:14;100718.63;;;2.73;100.00
45541;BME280;31265;49.680;8.608;2024-01-07T12:52:49;100724.34;;;2.64;100.00
45541;BME280;31265;49.680;8.608;2024-01-07T12:55:18;100728.09;;;2.61;100.00
45541;BME280;31265;49.680;8.608;2024-01-07T12:57:47;100734.56;;;2.63;100.00
45541;BME280;31265;49.680;8.608;2024-01-07T13:00:17;100728.53;;;2.42;100.00
45541;BME280;31265;49.680;8.608;2024-01-07T13:02:46;100732.03;;;2.37;100.00
45541;BME280;31265;49.680;8.608;2024-01-07T13:05:17;100746.97;;;2.30;100.00